createdAt,value
2018-11-07T00:02:10.679Z,9.50
2018-11-07T00:04:39.149Z,9.50
2018-11-07T00:07:07.652Z,9.50
2018-11-07T00:09:36.116Z,9.50
2018-11-07T00:12:04.883Z,9.50
2018-11-07T00:14:33.475Z,9.40
2018-11-07T00:17:02.011Z,9.50
2018-11-07T00:19:30.508Z,9.50
2018-11-07T00:21:58.987Z,9.50
2018-11-07T00:24:27.438Z,9.40
2018-11-07T00:26:56.925Z,9.40
2018-11-07T00:29:25.379Z,9.40
2018-11-07T00:31:53.856Z,9.40
2018-11-07T00:34:22.308Z,9.40
2018-11-07T00:36:50.855Z,9.30
2018-11-07T00:39:19.308Z,9.20
2018-11-07T00:41:47.784Z,9.20
2018-11-07T00:44:16.236Z,9.20
2018-11-07T00:46:44.725Z,9.20
2018-11-07T00:49:13.180Z,9.20
2018-11-07T00:51:41.725Z,9.20
2018-11-07T00:54:10.184Z,9.10
2018-11-07T00:56:38.668Z,9.10
2018-11-07T00:59:07.149Z,9.10
2018-11-07T01:01:35.631Z,9.10
2018-11-07T01:04:04.101Z,9.10
2018-11-07T01:06:32.616Z,9.10
2018-11-07T01:09:01.073Z,9.10
2018-11-07T01:11:29.549Z,9.00
2018-11-07T01:13:58.021Z,9.10
2018-11-07T01:16:26.526Z,9.00
2018-11-07T01:18:54.970Z,9.00
2018-11-07T01:21:23.455Z,9.00
2018-11-07T01:23:51.910Z,9.00
2018-11-07T01:26:20.396Z,9.00
2018-11-07T01:28:48.844Z,9.00
2018-11-07T01:31:17.328Z,9.00
2018-11-07T01:33:45.785Z,9.00
2018-11-07T01:36:14.331Z,9.00
2018-11-07T01:38:42.776Z,9.00
2018-11-07T01:41:11.264Z,8.90
2018-11-07T01:43:39.820Z,9.00
2018-11-07T01:46:08.312Z,9.00
2018-11-07T01:48:36.808Z,8.90
2018-11-07T01:51:06.100Z,8.90
2018-11-07T01:53:35.288Z,8.90
2018-11-07T01:56:03.774Z,8.90
2018-11-07T01:58:32.227Z,8.80
2018-11-07T02:01:00.706Z,8.80
2018-11-07T02:03:29.172Z,8.70
2018-11-07T02:05:57.656Z,8.70
2018-11-07T02:08:30.372Z,8.50
2018-11-07T02:10:59.588Z,8.60
2018-11-07T02:13:28.069Z,8.50
2018-11-07T02:15:56.580Z,8.50
2018-11-07T02:18:25.033Z,8.50
2018-11-07T02:20:53.525Z,8.40
2018-11-07T02:23:21.976Z,8.40
2018-11-07T02:25:50.448Z,8.40
2018-11-07T02:28:19.132Z,8.50
2018-11-07T02:30:47.617Z,8.50
2018-11-07T02:33:16.108Z,8.50
2018-11-07T02:35:44.616Z,8.50
2018-11-07T02:38:13.077Z,8.50
2018-11-07T02:40:41.552Z,8.50
2018-11-07T02:43:10.013Z,8.50
2018-11-07T02:45:38.493Z,8.40
2018-11-07T02:48:07.020Z,8.50
2018-11-07T02:50:35.486Z,8.40
2018-11-07T02:53:03.961Z,8.40
2018-11-07T02:55:32.440Z,8.40
2018-11-07T02:58:00.876Z,8.40
2018-11-07T03:00:29.353Z,8.40
2018-11-07T03:02:57.799Z,8.30
2018-11-07T03:05:26.284Z,8.30
2018-11-07T03:07:54.736Z,8.30
2018-11-07T03:10:23.243Z,8.30
2018-11-07T03:12:51.667Z,8.30
2018-11-07T03:15:20.140Z,8.30
2018-11-07T03:17:48.640Z,8.20
2018-11-07T03:20:17.099Z,8.20
2018-11-07T03:22:45.603Z,8.20
2018-11-07T03:25:14.069Z,8.20
2018-11-07T03:27:42.556Z,8.20
2018-11-07T03:30:11.191Z,8.20
2018-11-07T03:32:39.697Z,8.20
2018-11-07T03:35:12.433Z,8.20
2018-11-07T03:37:40.928Z,8.20
2018-11-07T03:40:09.434Z,8.10
2018-11-07T03:42:37.938Z,8.10
2018-11-07T03:45:06.450Z,8.10
2018-11-07T03:47:34.944Z,8.00
2018-11-07T03:50:03.433Z,7.90
2018-11-07T03:52:31.921Z,7.90
2018-11-07T03:55:00.385Z,7.90
2018-11-07T03:57:29.217Z,7.80
2018-11-07T03:59:57.680Z,7.80
2018-11-07T04:02:26.172Z,7.70
2018-11-07T04:04:54.638Z,7.70
2018-11-07T04:07:23.128Z,7.70
2018-11-07T04:09:51.592Z,7.60
2018-11-07T04:12:20.089Z,7.60
2018-11-07T04:14:48.551Z,7.50
2018-11-07T04:17:17.058Z,7.50
2018-11-07T04:19:45.528Z,7.40
2018-11-07T04:22:14.019Z,7.40
2018-11-07T04:24:42.489Z,7.40
2018-11-07T04:27:10.996Z,7.40
2018-11-07T04:29:39.465Z,7.40
2018-11-07T04:32:07.952Z,7.40
2018-11-07T04:34:36.417Z,7.40
2018-11-07T04:37:04.986Z,7.30
2018-11-07T04:39:33.437Z,7.30
2018-11-07T04:42:01.933Z,7.30
2018-11-07T04:44:30.392Z,7.20
2018-11-07T04:46:58.897Z,7.20
2018-11-07T04:49:27.364Z,7.20
2018-11-07T04:51:55.874Z,7.20
2018-11-07T04:54:24.342Z,7.10
2018-11-07T04:56:52.844Z,7.20
2018-11-07T04:59:21.301Z,7.10
2018-11-07T05:01:49.806Z,7.10
2018-11-07T05:04:18.277Z,7.10
2018-11-07T05:06:46.773Z,7.10
2018-11-07T05:09:15.245Z,7.10
2018-11-07T05:11:43.729Z,7.10
2018-11-07T05:14:12.193Z,7.00
2018-11-07T05:16:40.934Z,7.00
2018-11-07T05:19:09.397Z,7.00
2018-11-07T05:21:37.897Z,7.00
2018-11-07T05:24:06.497Z,7.00
2018-11-07T05:26:35.097Z,6.90
2018-11-07T05:29:03.592Z,6.90
2018-11-07T05:31:32.110Z,6.90
2018-11-07T05:34:00.620Z,6.80
2018-11-07T05:36:29.137Z,6.80
2018-11-07T05:38:57.637Z,6.80
2018-11-07T05:41:26.159Z,6.70
2018-11-07T05:43:55.066Z,6.70
2018-11-07T05:46:23.570Z,6.70
2018-11-07T05:48:52.976Z,6.70
2018-11-07T05:51:21.445Z,6.70
2018-11-07T05:53:49.920Z,6.70
2018-11-07T05:56:18.431Z,6.70
2018-11-07T05:58:46.909Z,6.60
2018-11-07T06:01:15.633Z,6.60
2018-11-07T06:03:44.169Z,6.60
2018-11-07T06:06:12.718Z,6.60
2018-11-07T06:08:41.291Z,6.60
2018-11-07T06:11:09.764Z,6.60
2018-11-07T06:13:38.458Z,6.60
2018-11-07T06:16:07.367Z,6.60
2018-11-07T06:18:35.845Z,6.60
2018-11-07T06:21:04.417Z,6.50
2018-11-07T06:23:32.985Z,6.50
2018-11-07T06:26:01.488Z,6.50
2018-11-07T06:28:29.989Z,6.50
2018-11-07T06:30:58.829Z,6.50
2018-11-07T06:33:27.345Z,6.50
2018-11-07T06:35:55.862Z,6.50
2018-11-07T06:38:24.354Z,6.50
2018-11-07T06:40:52.965Z,6.50
2018-11-07T06:43:21.773Z,6.60
2018-11-07T06:45:50.245Z,6.60
2018-11-07T06:48:18.753Z,6.60
2018-11-07T06:50:47.233Z,6.50
2018-11-07T06:53:15.724Z,6.60
2018-11-07T06:55:44.254Z,6.60
2018-11-07T06:58:12.710Z,6.60
2018-11-07T07:00:41.189Z,6.60
2018-11-07T07:03:09.694Z,6.60
2018-11-07T07:05:38.153Z,6.60
2018-11-07T07:08:06.661Z,6.70
2018-11-07T07:10:35.125Z,6.70
2018-11-07T07:13:03.637Z,6.70
2018-11-07T07:15:32.106Z,6.70
2018-11-07T07:18:00.625Z,6.80
2018-11-07T07:20:29.101Z,6.90
2018-11-07T07:22:57.592Z,6.90
2018-11-07T07:25:26.129Z,6.90
2018-11-07T07:27:54.572Z,7.00
2018-11-07T07:30:23.038Z,7.00
2018-11-07T07:32:52.036Z,7.00
2018-11-07T07:35:20.561Z,7.00
2018-11-07T07:37:49.068Z,7.10
2018-11-07T07:40:17.733Z,7.10
2018-11-07T07:42:46.833Z,7.10
2018-11-07T07:45:19.638Z,7.10
2018-11-07T07:47:48.193Z,7.20
2018-11-07T07:50:18.144Z,7.20
2018-11-07T07:52:46.726Z,7.30
2018-11-07T07:55:15.260Z,7.40
2018-11-07T07:57:44.073Z,7.40
2018-11-07T08:00:14.525Z,7.50
2018-11-07T08:02:45.963Z,7.60
2018-11-07T08:05:14.476Z,7.70
2018-11-07T08:07:43.317Z,7.80
2018-11-07T08:10:16.225Z,7.90
2018-11-07T08:12:45.297Z,8.10
2018-11-07T08:15:14.318Z,8.30
2018-11-07T08:17:43.856Z,8.60
2018-11-07T08:20:13.618Z,8.90
2018-11-07T08:22:43.109Z,9.30
2018-11-07T08:25:11.646Z,9.90
2018-11-07T08:27:40.509Z,11.20
2018-11-07T08:30:13.442Z,13.10
2018-11-07T08:32:42.437Z,15.20
2018-11-07T08:35:12.625Z,17.20
2018-11-07T08:37:42.228Z,18.80
2018-11-07T08:40:13.328Z,20.10
2018-11-07T08:42:42.037Z,21.30
2018-11-07T08:45:11.641Z,22.80
2018-11-07T08:47:40.554Z,24.30
2018-11-07T08:50:12.957Z,25.60
2018-11-07T08:52:42.697Z,26.80
2018-11-07T08:55:13.082Z,27.80
2018-11-07T08:57:41.601Z,28.30
2018-11-07T09:00:13.610Z,29.10
2018-11-07T09:02:43.249Z,29.30
2018-11-07T09:05:12.489Z,28.60
2018-11-07T09:07:41.405Z,28.60
2018-11-07T09:10:11.653Z,28.40
2018-11-07T09:12:40.517Z,28.00
2018-11-07T09:15:12.804Z,27.80
2018-11-07T09:17:41.365Z,27.20
2018-11-07T09:20:12.384Z,26.60
2018-11-07T09:22:41.109Z,26.20
2018-11-07T09:25:09.661Z,26.00
2018-11-07T09:27:38.196Z,26.00
2018-11-07T09:30:09.593Z,25.40
2018-11-07T09:32:38.117Z,25.80
2018-11-07T09:35:07.983Z,26.90
2018-11-07T09:37:36.460Z,28.10
2018-11-07T09:40:06.958Z,29.40
2018-11-07T09:42:35.581Z,30.40
2018-11-07T09:45:04.156Z,30.70
2018-11-07T09:47:32.800Z,31.00
2018-11-07T09:50:01.161Z,31.20
2018-11-07T09:52:29.629Z,31.40
2018-11-07T09:54:58.132Z,31.10
2018-11-07T09:57:26.617Z,31.20
2018-11-07T09:59:55.115Z,31.00
2018-11-07T10:02:23.582Z,30.60
2018-11-07T10:04:52.074Z,29.60
2018-11-07T10:07:20.576Z,29.30
2018-11-07T10:09:49.101Z,29.50
2018-11-07T10:12:17.611Z,29.30
2018-11-07T10:14:46.100Z,30.00
2018-11-07T10:17:14.729Z,30.70
2018-11-07T10:19:43.546Z,31.30
2018-11-07T10:22:12.033Z,32.00
2018-11-07T10:24:40.544Z,32.80
2018-11-07T10:27:09.201Z,33.70
2018-11-07T10:29:37.782Z,33.70
2018-11-07T10:32:06.719Z,33.40
2018-11-07T10:34:35.326Z,33.50
2018-11-07T10:37:03.861Z,33.70
2018-11-07T10:39:32.442Z,33.90
2018-11-07T10:42:00.950Z,34.00
2018-11-07T10:44:29.552Z,34.00
2018-11-07T10:46:58.298Z,33.70
2018-11-07T10:49:26.829Z,33.50
2018-11-07T10:51:55.388Z,33.50
2018-11-07T10:54:23.930Z,33.20
2018-11-07T10:56:52.444Z,32.60
2018-11-07T10:59:20.998Z,31.70
2018-11-07T11:01:54.782Z,30.90
2018-11-07T11:04:23.291Z,30.40
2018-11-07T11:06:51.995Z,29.40
2018-11-07T11:09:20.542Z,28.90
2018-11-07T11:11:49.178Z,28.90
2018-11-07T11:14:17.735Z,28.40
2018-11-07T11:16:46.477Z,28.10
2018-11-07T11:19:14.977Z,28.10
2018-11-07T11:21:43.887Z,28.10
2018-11-07T11:24:12.410Z,27.90
2018-11-07T11:26:40.966Z,27.60
2018-11-07T11:29:09.494Z,27.30
2018-11-07T11:31:38.076Z,27.20
2018-11-07T11:34:06.732Z,26.90
2018-11-07T11:36:35.210Z,26.70
2018-11-07T11:39:04.257Z,26.60
2018-11-07T11:41:32.777Z,26.40
2018-11-07T11:44:01.257Z,26.60
2018-11-07T11:46:29.830Z,26.60
2018-11-07T11:48:58.345Z,26.50
2018-11-07T11:51:26.860Z,26.50
2018-11-07T11:53:55.386Z,26.70
2018-11-07T11:56:23.883Z,26.50
2018-11-07T11:58:52.436Z,26.50
2018-11-07T12:01:20.974Z,26.30
2018-11-07T12:03:49.509Z,26.20
2018-11-07T12:06:18.093Z,26.10
2018-11-07T12:08:46.688Z,25.70
2018-11-07T12:11:15.189Z,25.40
2018-11-07T12:13:43.854Z,25.30
2018-11-07T12:16:12.363Z,25.10
2018-11-07T12:18:40.874Z,25.10
2018-11-07T12:21:09.435Z,24.90
2018-11-07T12:23:37.965Z,24.70
2018-11-07T12:26:06.614Z,24.80
2018-11-07T12:28:35.151Z,24.80
2018-11-07T12:31:03.762Z,24.70
2018-11-07T12:33:32.315Z,24.70
2018-11-07T12:36:00.981Z,24.60
2018-11-07T12:38:29.602Z,24.40
2018-11-07T12:40:58.125Z,24.50
2018-11-07T12:43:26.639Z,24.50
2018-11-07T12:45:55.305Z,24.40
2018-11-07T12:48:23.826Z,24.30
2018-11-07T12:50:52.370Z,24.20
2018-11-07T12:53:21.187Z,24.30
2018-11-07T12:55:49.705Z,24.30
2018-11-07T12:58:18.417Z,24.20
2018-11-07T13:00:46.731Z,23.90
2018-11-07T13:03:15.239Z,24.00
2018-11-07T13:05:43.739Z,23.90
2018-11-07T13:08:12.254Z,23.90
2018-11-07T13:10:40.808Z,23.80
2018-11-07T13:13:09.338Z,23.70
2018-11-07T13:15:37.841Z,23.60
2018-11-07T13:18:07.060Z,23.40
2018-11-07T13:20:35.593Z,23.30
2018-11-07T13:23:04.140Z,23.10
2018-11-07T13:25:32.646Z,23.10
2018-11-07T13:28:01.202Z,23.00
2018-11-07T13:30:29.741Z,23.10
2018-11-07T13:32:58.277Z,23.30
2018-11-07T13:35:26.890Z,23.30
2018-11-07T13:37:55.581Z,23.30
2018-11-07T13:40:25.099Z,23.30
2018-11-07T13:42:53.906Z,23.10
2018-11-07T13:45:23.487Z,23.10
2018-11-07T13:47:53.054Z,22.90
2018-11-07T13:50:21.987Z,22.90
2018-11-07T13:52:50.560Z,22.90
2018-11-07T13:55:19.154Z,23.00
2018-11-07T13:57:47.658Z,23.10
2018-11-07T14:00:18.675Z,22.90
2018-11-07T14:02:48.088Z,22.80
2018-11-07T14:05:16.765Z,22.80
2018-11-07T14:07:45.185Z,22.70
2018-11-07T14:10:18.315Z,22.50
2018-11-07T14:12:46.830Z,22.40
2018-11-07T14:15:15.343Z,22.40
2018-11-07T14:17:44.153Z,22.10
2018-11-07T14:20:12.653Z,22.00
2018-11-07T14:22:41.418Z,21.80
2018-11-07T14:25:11.665Z,21.60
2018-11-07T14:27:40.567Z,21.50
2018-11-07T14:30:14.171Z,21.40
2018-11-07T14:32:45.085Z,21.10
2018-11-07T14:35:13.997Z,20.80
2018-11-07T14:37:42.489Z,20.50
2018-11-07T14:40:11.236Z,20.20
2018-11-07T14:42:39.769Z,20.00
2018-11-07T14:45:09.632Z,19.80
2018-11-07T14:47:38.316Z,19.70
2018-11-07T14:50:08.009Z,19.50
2018-11-07T14:52:36.744Z,19.30
2018-11-07T14:55:05.301Z,19.10
2018-11-07T14:57:34.412Z,18.90
2018-11-07T15:00:03.081Z,18.70
2018-11-07T15:02:31.642Z,18.50
2018-11-07T15:05:00.090Z,18.20
2018-11-07T15:07:28.593Z,18.00
2018-11-07T15:09:57.097Z,17.90
2018-11-07T15:12:25.565Z,17.70
2018-11-07T15:14:54.038Z,17.60
2018-11-07T15:17:22.625Z,17.40
2018-11-07T15:19:51.026Z,17.20
2018-11-07T15:22:19.533Z,17.10
2018-11-07T15:24:48.026Z,17.00
2018-11-07T15:27:16.538Z,16.90
2018-11-07T15:29:45.017Z,16.80
2018-11-07T15:32:13.553Z,16.50
2018-11-07T15:34:42.016Z,16.20
2018-11-07T15:37:10.553Z,16.00
2018-11-07T15:39:39.021Z,15.90
2018-11-07T15:42:07.521Z,15.70
2018-11-07T15:44:35.993Z,15.60
2018-11-07T15:47:04.545Z,15.50
2018-11-07T15:49:33.013Z,15.40
2018-11-07T15:52:01.607Z,15.30
2018-11-07T15:54:29.989Z,15.20
2018-11-07T15:56:58.485Z,15.20
2018-11-07T15:59:26.950Z,15.20
2018-11-07T16:01:55.442Z,15.10
2018-11-07T16:04:23.896Z,14.90
2018-11-07T16:06:52.385Z,14.90
2018-11-07T16:09:20.869Z,14.80
2018-11-07T16:11:49.361Z,14.70
2018-11-07T16:14:17.904Z,14.60
2018-11-07T16:16:46.360Z,14.50
2018-11-07T16:19:14.824Z,14.30
2018-11-07T16:21:43.297Z,14.10
2018-11-07T16:24:11.889Z,14.10
2018-11-07T16:26:40.276Z,14.10
2018-11-07T16:29:08.786Z,14.00
2018-11-07T16:31:37.296Z,13.90
2018-11-07T16:34:05.882Z,13.80
2018-11-07T16:36:34.424Z,13.80
2018-11-07T16:39:03.069Z,13.80
2018-11-07T16:41:31.660Z,13.70
2018-11-07T16:44:00.056Z,13.60
2018-11-07T16:46:28.562Z,13.50
2018-11-07T16:48:57.047Z,13.50
2018-11-07T16:51:25.519Z,13.40
2018-11-07T16:53:54.029Z,13.30
2018-11-07T16:56:22.496Z,13.30
2018-11-07T16:58:50.989Z,13.30
2018-11-07T17:01:19.472Z,13.20
2018-11-07T17:03:47.984Z,13.20
2018-11-07T17:06:16.469Z,13.20
2018-11-07T17:08:44.973Z,13.10
2018-11-07T17:11:13.445Z,13.10
2018-11-07T17:13:41.933Z,13.00
2018-11-07T17:16:10.405Z,13.00
2018-11-07T17:18:38.909Z,13.00
2018-11-07T17:21:07.369Z,12.90
2018-11-07T17:23:35.875Z,12.90
2018-11-07T17:26:04.346Z,12.80
2018-11-07T17:28:32.832Z,12.80
2018-11-07T17:31:01.300Z,12.80
2018-11-07T17:33:29.848Z,12.70
2018-11-07T17:35:58.358Z,12.60
2018-11-07T17:38:26.897Z,12.50
2018-11-07T17:40:55.495Z,12.50
2018-11-07T17:43:23.984Z,12.40
2018-11-07T17:45:52.453Z,12.40
2018-11-07T17:48:21.135Z,12.30
2018-11-07T17:50:49.432Z,12.30
2018-11-07T17:53:17.932Z,12.20
2018-11-07T17:55:46.417Z,12.10
2018-11-07T17:58:14.916Z,12.00
2018-11-07T18:00:43.425Z,11.90
2018-11-07T18:03:11.928Z,11.90
2018-11-07T18:05:40.397Z,11.80
2018-11-07T18:08:08.896Z,11.70
2018-11-07T18:10:37.369Z,11.70
2018-11-07T18:13:06.245Z,11.60
2018-11-07T18:15:34.717Z,11.50
2018-11-07T18:18:03.221Z,11.40
2018-11-07T18:20:31.686Z,11.40
2018-11-07T18:23:00.196Z,11.30
2018-11-07T18:25:28.656Z,11.30
2018-11-07T18:27:57.117Z,11.20
2018-11-07T18:30:25.613Z,11.20
2018-11-07T18:32:54.105Z,11.10
2018-11-07T18:35:22.731Z,11.10
2018-11-07T18:37:51.121Z,11.00
2018-11-07T18:40:20.713Z,11.00
2018-11-07T18:42:49.256Z,10.90
2018-11-07T18:45:17.724Z,10.90
2018-11-07T18:47:46.959Z,10.90
2018-11-07T18:50:17.204Z,10.80
2018-11-07T18:52:45.949Z,10.80
2018-11-07T18:55:15.593Z,10.80
2018-11-07T18:57:44.656Z,10.70
2018-11-07T19:00:16.745Z,10.70
2018-11-07T19:02:45.915Z,10.70
2018-11-07T19:05:14.437Z,10.60
2018-11-07T19:07:43.301Z,10.60
2018-11-07T19:10:14.573Z,10.60
2018-11-07T19:12:43.443Z,10.60
2018-11-07T19:15:13.181Z,10.60
2018-11-07T19:17:42.760Z,10.60
2018-11-07T19:20:12.452Z,10.60
2018-11-07T19:22:41.061Z,10.50
2018-11-07T19:25:12.222Z,10.50
2018-11-07T19:27:40.749Z,10.50
2018-11-07T19:30:13.225Z,10.50
2018-11-07T19:32:42.343Z,10.50
2018-11-07T19:35:12.089Z,10.50
2018-11-07T19:37:40.569Z,10.40
2018-11-07T19:40:11.241Z,10.30
2018-11-07T19:42:39.947Z,10.30
2018-11-07T19:45:10.819Z,10.30
2018-11-07T19:47:39.698Z,10.20
2018-11-07T19:50:09.937Z,10.20
2018-11-07T19:52:38.413Z,10.20
2018-11-07T19:55:09.470Z,10.10
2018-11-07T19:57:38.013Z,10.10
2018-11-07T20:00:08.878Z,10.10
2018-11-07T20:02:37.344Z,10.10
2018-11-07T20:05:06.245Z,10.00
2018-11-07T20:07:34.909Z,10.00
2018-11-07T20:10:03.488Z,9.90
2018-11-07T20:12:31.973Z,9.90
2018-11-07T20:15:00.477Z,9.90
2018-11-07T20:17:28.948Z,9.90
2018-11-07T20:19:57.438Z,9.80
2018-11-07T20:22:25.922Z,9.80
2018-11-07T20:24:54.421Z,9.80
2018-11-07T20:27:22.900Z,9.70
2018-11-07T20:29:51.417Z,9.70
2018-11-07T20:32:19.924Z,9.70
2018-11-07T20:34:48.453Z,9.60
2018-11-07T20:37:16.956Z,9.60
2018-11-07T20:39:45.413Z,9.60
2018-11-07T20:42:13.918Z,9.60
2018-11-07T20:44:42.634Z,9.60
2018-11-07T20:47:11.274Z,9.50
2018-11-07T20:49:39.765Z,9.40
2018-11-07T20:52:08.285Z,9.40
2018-11-07T20:54:36.802Z,9.40
2018-11-07T20:57:05.461Z,9.40
2018-11-07T20:59:33.932Z,9.40
2018-11-07T21:02:02.452Z,9.40
2018-11-07T21:04:31.049Z,9.40
2018-11-07T21:06:59.541Z,9.40
2018-11-07T21:09:28.705Z,9.40
2018-11-07T21:11:57.201Z,9.40
2018-11-07T21:14:25.669Z,9.40
2018-11-07T21:16:54.215Z,9.30
2018-11-07T21:19:22.646Z,9.30
2018-11-07T21:21:51.142Z,9.20
2018-11-07T21:24:19.625Z,9.20
2018-11-07T21:26:48.155Z,9.20
2018-11-07T21:29:16.620Z,9.20
2018-11-07T21:31:45.120Z,9.20
2018-11-07T21:34:14.170Z,9.20
2018-11-07T21:36:42.694Z,9.10
2018-11-07T21:39:11.890Z,9.10
2018-11-07T21:41:40.909Z,9.10
2018-11-07T21:44:09.667Z,9.10
2018-11-07T21:46:38.161Z,9.00
2018-11-07T21:49:06.642Z,9.10
2018-11-07T21:51:35.112Z,9.00
2018-11-07T21:54:03.604Z,9.00
2018-11-07T21:56:32.066Z,9.10
2018-11-07T21:59:00.556Z,9.00
2018-11-07T22:01:29.029Z,9.00
2018-11-07T22:03:57.517Z,9.00
2018-11-07T22:06:25.983Z,9.00
2018-11-07T22:08:54.472Z,8.90
2018-11-07T22:11:22.941Z,8.90
2018-11-07T22:13:51.445Z,8.90
2018-11-07T22:16:19.918Z,9.00
2018-11-07T22:18:48.420Z,8.90
2018-11-07T22:21:16.929Z,8.90
2018-11-07T22:23:45.436Z,8.90
2018-11-07T22:26:13.917Z,8.90
2018-11-07T22:28:42.413Z,8.90
2018-11-07T22:31:10.889Z,8.90
2018-11-07T22:33:39.386Z,8.90
2018-11-07T22:36:07.913Z,8.80
2018-11-07T22:38:36.405Z,8.80
2018-11-07T22:41:04.897Z,8.90
2018-11-07T22:43:33.400Z,8.90
2018-11-07T22:46:01.871Z,8.90
2018-11-07T22:48:30.368Z,8.90
2018-11-07T22:50:58.832Z,8.90
2018-11-07T22:53:27.337Z,8.90
2018-11-07T22:55:55.811Z,8.90
2018-11-07T22:58:24.334Z,8.80
2018-11-07T23:00:58.099Z,8.80
2018-11-07T23:03:26.594Z,8.90
2018-11-07T23:05:55.074Z,8.90
2018-11-07T23:08:23.541Z,8.90
2018-11-07T23:10:52.038Z,8.90
2018-11-07T23:13:20.516Z,8.90
2018-11-07T23:15:49.769Z,8.90
2018-11-07T23:18:19.696Z,8.90
2018-11-07T23:20:48.221Z,8.90
2018-11-07T23:23:17.326Z,8.90
2018-11-07T23:25:46.346Z,8.90
2018-11-07T23:28:14.825Z,8.90
2018-11-07T23:30:43.412Z,8.90
2018-11-07T23:33:11.877Z,8.90
2018-11-07T23:35:40.405Z,8.90
2018-11-07T23:38:08.864Z,8.90
2018-11-07T23:40:37.393Z,8.90
2018-11-07T23:43:05.865Z,9.00
2018-11-07T23:45:34.364Z,9.00
2018-11-07T23:48:02.825Z,9.00
2018-11-07T23:50:31.337Z,8.90
2018-11-07T23:52:59.812Z,8.90
2018-11-07T23:55:28.281Z,8.90
2018-11-07T23:57:56.777Z,8.90
